Time;durP1;ratioP1;P1;durP2;ratioP2;P2;SDS_P1;SDS_P2;PMS_P1;PMS_P2;Temp;Humidity;BMP_temperature;BMP_pressure;BME280_temperature;BME280_humidity;BME280_pressure;Samples;Min_cycle;Max_cycle;Signal;HPM_P1;HPM_P2
2021/07/15 00:02:23;;;;;;;5.17;3.60;;;;;;;18.73;79.90;99100.48;530379;1092;117607;-61
2021/07/15 00:12:29;;;;;;;8.13;4.03;;;;;;;18.68;79.71;99109.94;530297;1092;115945;-60
2021/07/15 00:22:36;;;;;;;6.33;3.13;;;;;;;18.77;79.79;99100.98;530755;1092;116071;-61
2021/07/15 00:32:43;;;;;;;4.53;3.20;;;;;;;18.67;79.63;99057.76;530154;1093;116379;-61
2021/07/15 00:42:50;;;;;;;8.97;3.50;;;;;;;18.72;79.65;99071.41;529240;1092;115677;-61
2021/07/15 00:52:56;;;;;;;5.53;3.83;;;;;;;18.74;79.46;99099.48;530828;1093;115724;-62
2021/07/15 01:03:04;;;;;;;7.27;4.03;;;;;;;18.83;79.16;99129.60;530308;1092;117866;-61
2021/07/15 01:13:21;;;;;;;9.93;3.20;;;;;;;18.86;79.04;99177.14;530086;1092;116468;-61
2021/07/15 01:24:08;;;;;;;5.93;3.23;;;;;;;18.70;79.13;99307.38;530289;1092;115744;-60
2021/07/15 01:34:16;;;;;;;5.57;4.10;;;;;;;18.52;79.99;99273.73;529952;1092;116120;-60
2021/07/15 01:44:27;;;;;;;8.15;4.23;;;;;;;18.60;80.27;99231.25;530228;1092;117106;-61
2021/07/15 01:54:35;;;;;;;7.47;4.13;;;;;;;18.68;80.90;99158.65;529445;1092;116438;-60
2021/07/15 02:04:42;;;;;;;8.63;4.28;;;;;;;18.76;80.69;99160.48;530809;1092;116299;-62
2021/07/15 02:14:51;;;;;;;8.50;3.80;;;;;;;18.83;80.82;99100.34;530956;1092;116079;-60
2021/07/15 02:24:58;;;;;;;5.77;3.60;;;;;;;18.86;80.66;99014.90;531072;1093;116397;-60
2021/07/15 02:35:10;;;;;;;5.27;3.30;;;;;;;18.63;80.96;98958.88;530968;1092;116038;-60
2021/07/15 02:45:19;;;;;;;7.57;3.40;;;;;;;18.60;80.77;99026.52;530263;1092;117065;-60
2021/07/15 02:55:26;;;;;;;5.80;3.18;;;;;;;18.58;80.70;99140.19;530937;1092;116414;-60
2021/07/15 03:05:42;;;;;;;8.43;5.10;;;;;;;18.45;81.10;99182.31;530791;1092;115930;-60
2021/07/15 03:15:49;;;;;;;6.63;3.70;;;;;;;18.43;81.67;99205.56;529306;1092;117802;-60
2021/07/15 03:25:58;;;;;;;7.70;4.43;;;;;;;18.42;81.86;99180.83;529852;1092;116690;-60
2021/07/15 03:36:07;;;;;;;5.13;3.97;;;;;;;18.43;82.02;99149.75;529143;1093;115761;-60
2021/07/15 03:46:14;;;;;;;10.23;4.30;;;;;;;18.43;82.06;99126.67;529971;1092;115624;-60
2021/07/15 03:56:21;;;;;;;10.80;4.97;;;;;;;18.50;81.95;99063.06;530959;1092;116297;-60
2021/07/15 04:06:29;;;;;;;8.33;4.20;;;;;;;18.58;81.65;98996.62;530259;1092;117293;-60
2021/07/15 04:16:48;;;;;;;7.35;4.05;;;;;;;18.65;81.98;98972.02;530675;1092;116522;-60
2021/07/15 04:26:55;;;;;;;5.07;3.40;;;;;;;18.76;81.40;99020.39;529877;1093;115771;-60
2021/07/15 04:37:03;;;;;;;7.30;3.18;;;;;;;18.86;81.40;99080.55;531016;1093;116004;-60
2021/07/15 04:47:13;;;;;;;11.20;3.75;;;;;;;19.12;81.18;99115.02;530312;1092;115466;-60
2021/07/15 04:57:20;;;;;;;5.00;2.83;;;;;;;19.41;80.48;99075.59;529244;1092;116928;-61
2021/07/15 05:07:26;;;;;;;5.40;4.10;;;;;;;19.62;79.91;99020.97;529818;1092;116421;-61
2021/07/15 05:17:33;;;;;;;6.47;3.90;;;;;;;19.86;78.81;98980.91;529873;1092;116167;-60
2021/07/15 05:27:39;;;;;;;4.63;2.97;;;;;;;19.88;78.72;98986.08;530274;1091;116111;-61
2021/07/15 05:37:46;;;;;;;8.00;3.37;;;;;;;20.00;78.33;99003.37;530259;1092;115925;-60
2021/07/15 05:47:52;;;;;;;5.37;2.70;;;;;;;19.95;78.27;99020.88;519067;1093;115849;-61
2021/07/15 05:57:58;;;;;;;5.60;3.50;;;;;;;19.92;78.23;99055.84;519453;1092;115887;-61
2021/07/15 06:08:07;;;;;;;5.10;3.73;;;;;;;20.22;77.81;99083.55;529982;1093;116462;-60
2021/07/15 06:18:14;;;;;;;8.05;3.00;;;;;;;25.39;73.89;99044.32;522550;1092;116564;-60
2021/07/15 06:28:21;;;;;;;4.53;3.83;;;;;;;30.26;67.60;99025.23;529965;1092;116372;-61
2021/07/15 06:38:32;;;;;;;3.78;2.43;;;;;;;39.16;54.42;99056.16;529795;1092;115909;-62
2021/07/15 06:48:38;;;;;;;6.53;3.23;;;;;;;41.23;44.28;99044.47;529150;1092;116489;-61
2021/07/15 06:58:45;;;;;;;5.33;3.20;;;;;;;35.10;43.20;99051.92;530327;1092;116389;-60
2021/07/15 07:08:52;;;;;;;4.55;3.30;;;;;;;30.20;48.04;99054.09;530831;1092;116376;-58
2021/07/15 07:18:58;;;;;;;5.40;3.45;;;;;;;30.16;49.23;99118.71;518799;1092;171598;-58
2021/07/15 07:29:07;;;;;;;5.23;3.67;;;;;;;27.08;51.98;99115.30;531007;1092;116125;-59
2021/07/15 07:39:14;;;;;;;5.20;3.00;;;;;;;25.45;54.65;99156.36;523104;1093;117666;-58
2021/07/15 07:49:20;;;;;;;7.50;4.73;;;;;;;24.37;57.30;99169.52;526384;1092;116734;-59
2021/07/15 07:59:27;;;;;;;7.73;4.47;;;;;;;23.62;59.48;99144.06;530993;1092;116407;-59
2021/07/15 08:09:41;;;;;;;7.03;4.23;;;;;;;22.95;61.35;99187.11;530277;1093;116207;-56
2021/07/15 08:19:48;;;;;;;8.97;5.23;;;;;;;22.46;63.29;99193.09;531006;1091;116735;-66
2021/07/15 08:29:55;;;;;;;7.13;5.50;;;;;;;22.28;65.02;99182.73;529121;1092;116053;-62
2021/07/15 08:40:01;;;;;;;10.23;5.80;;;;;;;22.10;66.59;99167.91;529842;1092;117504;-65
2021/07/15 08:50:10;;;;;;;6.47;5.63;;;;;;;22.03;67.07;99274.75;530930;1092;116230;-61
2021/07/15 09:00:18;;;;;;;10.33;6.77;;;;;;;21.89;67.63;99256.84;530247;1093;117056;-61
2021/07/15 09:10:24;;;;;;;9.85;6.83;;;;;;;22.16;68.16;99241.20;530991;1091;117199;-66
2021/07/15 09:20:31;;;;;;;8.90;6.73;;;;;;;22.90;67.97;99244.91;530962;1093;116657;-61
2021/07/15 09:30:37;;;;;;;10.20;6.40;;;;;;;23.38;67.17;99225.69;530232;1092;116816;-59
2021/07/15 09:40:45;;;;;;;8.03;6.13;;;;;;;24.35;65.84;99176.91;520757;1092;115779;-61
2021/07/15 09:50:53;;;;;;;;;;;;;;;25.53;63.07;99244.89;529612;1092;116144;-61
2021/07/15 10:01:04;;;;;;;9.20;6.90;;;;;;;25.22;62.50;99262.36;530062;1092;168968;-61
2021/07/15 10:11:22;;;;;;;9.50;6.73;;;;;;;26.14;61.80;99218.80;530883;1092;117177;-63
2021/07/15 10:21:31;;;;;;;7.53;6.37;;;;;;;27.30;60.24;99270.41;530265;1092;116106;-59
2021/07/15 10:31:38;;;;;;;7.30;5.18;;;;;;;27.92;59.13;99256.29;530958;1093;116692;-59
2021/07/15 10:41:46;;;;;;;5.15;4.63;;;;;;;27.30;58.19;99238.91;530947;1093;117109;-68
2021/07/15 10:51:56;;;;;;;7.03;5.30;;;;;;;26.33;58.98;99185.87;530791;1093;116223;-65
2021/07/15 11:02:04;;;;;;;8.37;5.07;;;;;;;26.04;59.72;99199.56;529906;1092;115974;-66
2021/07/15 11:22:54;;;;;;;11.33;6.87;;;;;;;26.00;60.59;99279.03;524141;1089;64743;-67
2021/07/15 11:33:39;;;;;;;7.70;6.23;;;;;;;26.85;60.71;99288.20;530329;1089;118890;-68
2021/07/15 11:43:57;;;;;;;8.67;5.90;;;;;;;27.68;58.40;99264.16;531087;1090;116384;-66
2021/07/15 11:54:34;;;;;;;;;;;;;;;27.66;56.78;99260.86;530349;1089;116367;-65
2021/07/15 12:05:10;;;;;;;16.70;6.60;;;;;;;27.87;56.15;99254.25;531350;1088;102689;-65
2021/07/15 12:15:19;;;;;;;11.83;5.40;;;;;;;28.51;55.25;99245.14;530358;1090;116631;-68
2021/07/15 12:25:29;;;;;;;7.73;5.00;;;;;;;29.17;53.60;99206.73;528109;1089;116792;-66
2021/07/15 12:35:37;;;;;;;11.27;5.57;;;;;;;29.00;52.62;99180.35;518909;1089;116069;-66
2021/07/15 12:45:51;;;;;;;11.87;5.13;;;;;;;29.53;51.47;99183.33;530075;1089;115898;-62
2021/07/15 12:56:01;;;;;;;6.77;4.50;;;;;;;29.42;50.27;99165.18;530977;1090;115463;-65
2021/07/15 13:06:08;;;;;;;17.90;4.90;;;;;;;29.49;50.37;99152.38;530321;1090;116118;-64
2021/07/15 13:16:20;;;;;;;6.43;4.33;;;;;;;29.40;50.34;99153.78;530961;1091;117251;-63
2021/07/15 13:26:27;;;;;;;5.20;4.40;;;;;;;28.66;49.96;99148.38;531008;1090;116653;-65
2021/07/15 13:36:33;;;;;;;6.67;4.50;;;;;;;28.63;51.30;99142.61;530319;1090;116521;-64
2021/07/15 13:46:40;;;;;;;7.47;3.90;;;;;;;28.73;50.05;99139.34;531005;1090;115870;-61
2021/07/15 13:56:45;;;;;;;;;;;;;;;28.48;50.49;99122.24;531009;1090;116294;-59
2021/07/15 14:06:52;;;;;;;10.13;3.73;;;;;;;28.18;50.19;99128.41;530645;1090;101819;-62
2021/07/15 14:16:58;;;;;;;;;;;;;;;28.15;49.79;99128.00;531038;1090;116635;-60
2021/07/15 14:27:07;;;;;;;4.55;3.60;;;;;;;28.86;49.41;99139.22;530695;1090;102425;-60
2021/07/15 14:37:14;;;;;;;7.80;3.80;;;;;;;29.10;48.28;99155.49;530992;1090;116584;-63
2021/07/15 14:47:20;;;;;;;6.60;3.88;;;;;;;29.01;48.43;99173.09;530991;1088;116401;-60
2021/07/15 14:57:27;;;;;;;5.20;3.57;;;;;;;28.94;48.23;99171.28;530273;1090;116405;-62
2021/07/15 15:07:33;;;;;;;5.90;4.20;;;;;;;28.99;48.50;99192.22;518504;1089;116182;-60
2021/07/15 15:17:40;;;;;;;5.33;4.03;;;;;;;28.91;48.18;99201.48;531038;1090;116103;-63
2021/07/15 15:27:46;;;;;;;6.67;3.63;;;;;;;28.75;48.54;99208.30;530289;1090;116497;-60
2021/07/15 15:37:53;;;;;;;5.33;4.83;;;;;;;28.80;48.00;99203.06;522106;1090;116596;-60
2021/07/15 15:47:59;;;;;;;10.87;4.50;;;;;;;28.60;48.61;99222.19;511960;1088;115598;-63
2021/07/15 15:58:05;;;;;;;8.38;4.35;;;;;;;28.31;47.96;99207.58;512716;1090;116721;-64
2021/07/15 16:08:12;;;;;;;7.33;4.67;;;;;;;28.01;48.20;99203.70;512772;1090;116282;-52
2021/07/15 16:18:19;;;;;;;8.75;4.25;;;;;;;27.90;48.64;99185.55;523799;1090;115836;-59
2021/07/15 16:28:25;;;;;;;6.93;4.80;;;;;;;27.87;49.24;99167.13;530970;1091;115786;-60
2021/07/15 16:38:32;;;;;;;6.70;4.93;;;;;;;27.78;49.68;99164.70;513110;1091;10113385;-58
2021/07/15 16:48:39;;;;;;;5.90;4.95;;;;;;;27.94;49.21;99178.69;530097;1091;116699;-63
2021/07/15 16:58:45;;;;;;;8.67;5.67;;;;;;;27.71;49.78;99179.30;530645;1091;115903;-52
2021/07/15 17:08:52;;;;;;;9.43;6.20;;;;;;;27.13;50.56;99179.31;530730;1093;115998;-63
2021/07/15 17:18:59;;;;;;;11.57;5.87;;;;;;;26.64;51.52;99177.05;530592;1093;183010;-63
2021/07/15 17:29:06;;;;;;;9.50;6.48;;;;;;;26.25;53.05;99187.74;530889;1091;116131;-63
2021/07/15 17:39:13;;;;;;;11.55;7.48;;;;;;;26.12;54.49;99196.66;530193;1091;116992;-62
2021/07/15 17:49:21;;;;;;;9.43;7.37;;;;;;;26.05;55.21;99190.45;530927;1092;116805;-62
2021/07/15 17:59:27;;;;;;;7.30;6.60;;;;;;;25.82;55.73;99185.55;530933;1090;115268;-62
2021/07/15 18:09:34;;;;;;;9.43;7.40;;;;;;;25.51;56.95;99171.70;530231;1093;115695;-62
2021/07/15 18:19:41;;;;;;;9.63;7.73;;;;;;;25.29;58.40;99174.55;530957;1089;116665;-57
2021/07/15 18:29:47;;;;;;;10.47;8.17;;;;;;;25.01;59.52;99156.73;530957;1090;171650;-62
2021/07/15 18:39:54;;;;;;;11.60;9.53;;;;;;;24.69;60.12;99174.38;530990;1090;116119;-62
2021/07/15 18:50:01;;;;;;;9.63;8.50;;;;;;;24.27;61.33;99177.91;530965;1090;116231;-61
2021/07/15 19:00:11;;;;;;;12.20;8.57;;;;;;;24.02;62.33;99205.17;530294;1090;115949;-60
2021/07/15 19:10:21;;;;;;;17.07;10.63;;;;;;;23.85;63.35;99225.27;530943;1089;116083;-60
2021/07/15 19:20:29;;;;;;;12.77;8.90;;;;;;;23.58;64.12;99247.30;531046;1090;117311;-60
2021/07/15 19:30:36;;;;;;;10.55;8.25;;;;;;;23.50;64.78;99242.07;530300;1090;116763;-61
2021/07/15 19:40:43;;;;;;;11.97;10.47;;;;;;;23.31;65.17;99241.67;531009;1089;117174;-61
2021/07/15 19:50:49;;;;;;;10.03;8.20;;;;;;;23.03;65.90;99231.67;530988;1090;116486;-61
2021/07/15 20:00:56;;;;;;;10.53;8.33;;;;;;;22.84;66.26;99232.27;531681;1089;116020;-63
2021/07/15 20:11:02;;;;;;;11.77;7.80;;;;;;;22.80;66.62;99235.31;523626;1089;117901;-59
2021/07/15 20:21:09;;;;;;;10.30;8.50;;;;;;;22.71;66.67;99215.02;529649;1089;115875;-60
2021/07/15 20:31:15;;;;;;;10.63;9.60;;;;;;;22.54;66.78;99230.45;531883;1088;116801;-60
2021/07/15 20:41:22;;;;;;;12.23;8.30;;;;;;;22.38;67.38;99221.58;531847;1089;115720;-61
2021/07/15 20:51:28;;;;;;;11.80;9.33;;;;;;;22.39;67.36;99225.91;531016;1089;115951;-65
2021/07/15 21:01:36;;;;;;;8.73;7.90;;;;;;;22.39;67.59;99222.39;531259;1089;117308;-60
2021/07/15 21:11:44;;;;;;;11.10;8.20;;;;;;;22.36;67.98;99252.19;531102;1090;116322;-59
2021/07/15 21:21:51;;;;;;;10.60;9.27;;;;;;;22.20;67.83;99253.19;530461;1089;116551;-59
2021/07/15 21:31:58;;;;;;;10.50;7.00;;;;;;;22.11;68.48;99255.13;525060;1089;116686;-58
2021/07/15 21:42:06;;;;;;;9.95;7.98;;;;;;;22.00;69.30;99253.73;512015;1089;116529;-58
2021/07/15 21:52:13;;;;;;;13.43;8.50;;;;;;;21.94;69.74;99259.79;531323;1089;115653;-59
2021/07/15 22:02:19;;;;;;;11.10;7.17;;;;;;;21.90;70.02;99258.50;531228;1089;116945;-58
2021/07/15 22:12:26;;;;;;;7.70;6.93;;;;;;;21.86;70.26;99255.34;530544;1089;116285;-59
2021/07/15 22:22:33;;;;;;;9.33;7.23;;;;;;;21.87;70.66;99256.16;531392;1089;116289;-59
2021/07/15 22:32:39;;;;;;;9.87;7.80;;;;;;;21.88;70.95;99255.99;531387;1090;115930;-58
2021/07/15 22:42:46;;;;;;;11.83;7.00;;;;;;;21.87;70.81;99270.38;530568;1089;116702;-58
2021/07/15 22:52:53;;;;;;;9.07;8.10;;;;;;;21.91;70.99;99277.01;531211;1089;116827;-58
2021/07/15 23:03:00;;;;;;;10.70;7.40;;;;;;;21.85;71.38;99283.09;530735;1088;115784;-59
2021/07/15 23:13:10;;;;;;;10.85;7.18;;;;;;;22.02;71.22;99269.56;531474;1088;116709;-59
2021/07/15 23:23:17;;;;;;;9.05;8.10;;;;;;;22.06;71.21;99276.23;523726;1089;116035;-51
2021/07/15 23:33:24;;;;;;;13.63;9.10;;;;;;;22.01;71.31;99276.77;512357;1089;116732;-54
2021/07/15 23:43:30;;;;;;;12.60;9.07;;;;;;;21.96;70.14;99288.00;513079;1090;116763;-57
2021/07/15 23:53:37;;;;;;;7.50;6.70;;;;;;;21.89;69.56;99283.56;523723;1088;116046;-58
